createdAt,value
2022-10-16T00:01:47.253Z,65.30
2022-10-16T00:04:22.366Z,65.30
2022-10-16T00:06:57.302Z,65.00
2022-10-16T00:09:32.354Z,64.80
2022-10-16T00:12:08.422Z,64.60
2022-10-16T00:14:44.944Z,64.40
2022-10-16T00:17:19.900Z,64.20
2022-10-16T00:19:54.827Z,63.90
2022-10-16T00:22:30.268Z,63.60
2022-10-16T00:25:05.665Z,63.70
2022-10-16T00:27:40.555Z,63.30
2022-10-16T00:30:15.710Z,63.50
2022-10-16T00:32:50.530Z,63.60
2022-10-16T00:35:25.440Z,63.60
2022-10-16T00:38:00.442Z,63.70
2022-10-16T00:40:35.339Z,63.80
2022-10-16T00:43:52.120Z,64.10
2022-10-16T00:46:40.046Z,64.20
2022-10-16T00:49:20.584Z,64.40
2022-10-16T00:51:55.518Z,64.50
2022-10-16T00:54:34.257Z,64.20
2022-10-16T00:57:09.221Z,64.20
2022-10-16T00:59:44.250Z,64.50
2022-10-16T01:02:19.218Z,64.70
2022-10-16T01:04:55.386Z,64.70
2022-10-16T01:08:14.310Z,65.00
2022-10-16T01:11:15.963Z,65.20
2022-10-16T01:14:00.256Z,65.40
2022-10-16T01:16:41.500Z,65.40
2022-10-16T01:19:52.673Z,66.10
2022-10-16T01:23:09.588Z,66.20
2022-10-16T01:26:04.269Z,66.10
2022-10-16T01:28:57.148Z,66.30
2022-10-16T01:31:35.888Z,66.30
2022-10-16T01:34:22.413Z,66.50
2022-10-16T01:37:06.768Z,66.80
2022-10-16T01:39:46.893Z,66.90
2022-10-16T01:42:25.974Z,66.90
2022-10-16T01:45:02.113Z,66.80
2022-10-16T01:47:38.836Z,66.80
2022-10-16T01:50:17.457Z,66.80
2022-10-16T01:52:54.383Z,66.80
2022-10-16T01:55:35.188Z,66.80
2022-10-16T01:58:13.773Z,67.00
2022-10-16T02:00:49.419Z,67.20
2022-10-16T02:03:24.594Z,67.10
2022-10-16T02:06:00.267Z,67.30
2022-10-16T02:08:36.804Z,67.30
2022-10-16T02:11:12.783Z,67.70
2022-10-16T02:14:03.144Z,67.90
2022-10-16T02:16:43.277Z,68.20
2022-10-16T02:19:22.226Z,68.30
2022-10-16T02:22:05.766Z,69.20
2022-10-16T02:25:06.531Z,69.10
2022-10-16T02:27:52.997Z,69.50
2022-10-16T02:30:43.955Z,70.00
2022-10-16T02:33:22.495Z,70.20
2022-10-16T02:35:58.833Z,70.00
2022-10-16T02:38:35.033Z,70.10
2022-10-16T02:41:10.284Z,70.00
2022-10-16T02:43:45.172Z,70.10
2022-10-16T02:46:20.265Z,70.30
2022-10-16T02:48:55.183Z,70.50
2022-10-16T02:51:30.264Z,70.70
2022-10-16T02:54:05.581Z,70.70
2022-10-16T02:56:40.474Z,71.10
2022-10-16T02:59:15.376Z,71.20
2022-10-16T03:01:50.387Z,71.30
2022-10-16T03:04:25.289Z,71.40
2022-10-16T03:07:00.379Z,71.50
2022-10-16T03:09:35.487Z,71.40
2022-10-16T03:12:10.489Z,71.50
2022-10-16T03:14:45.455Z,71.70
2022-10-16T03:17:20.441Z,71.90
2022-10-16T03:19:55.365Z,72.10
2022-10-16T03:22:30.465Z,72.10
2022-10-16T03:25:06.122Z,72.30
2022-10-16T03:27:41.054Z,72.40
2022-10-16T03:30:16.718Z,72.40
2022-10-16T03:32:54.972Z,72.60
2022-10-16T03:35:30.810Z,72.80
2022-10-16T03:38:05.774Z,72.90
2022-10-16T03:40:40.841Z,73.10
2022-10-16T03:45:55.537Z,73.50
2022-10-16T03:48:30.645Z,73.90
2022-10-16T03:51:05.764Z,73.90
2022-10-16T03:53:40.796Z,74.10
2022-10-16T03:56:15.785Z,74.30
2022-10-16T03:58:50.745Z,74.60
2022-10-16T04:01:25.749Z,75.00
2022-10-16T04:04:00.747Z,75.40
2022-10-16T04:06:35.755Z,75.80
2022-10-16T04:09:10.663Z,76.30
2022-10-16T04:11:45.792Z,75.80
2022-10-16T04:14:20.769Z,76.00
2022-10-16T04:16:55.796Z,76.20
2022-10-16T04:19:30.754Z,76.30
2022-10-16T04:22:05.618Z,76.10
2022-10-16T04:24:41.034Z,76.10
2022-10-16T04:27:15.956Z,76.20
2022-10-16T04:29:50.876Z,76.60
2022-10-16T04:32:26.231Z,76.70
2022-10-16T04:35:01.587Z,77.00
2022-10-16T04:37:36.604Z,77.10
2022-10-16T04:40:11.984Z,77.30
2022-10-16T04:42:46.969Z,77.20
2022-10-16T04:45:21.876Z,77.50
2022-10-16T04:47:59.595Z,77.60
2022-10-16T04:50:34.523Z,78.00
2022-10-16T04:53:15.186Z,77.90
2022-10-16T04:55:51.796Z,77.90
2022-10-16T04:58:26.788Z,77.80
2022-10-16T05:01:01.793Z,77.80
2022-10-16T05:03:36.799Z,77.90
2022-10-16T05:06:11.707Z,77.80
2022-10-16T05:08:46.628Z,78.30
2022-10-16T05:11:21.541Z,77.80
2022-10-16T05:13:56.608Z,77.80
2022-10-16T05:16:31.953Z,77.80
2022-10-16T05:22:02.174Z,77.70
2022-10-16T05:24:37.189Z,77.60
2022-10-16T05:27:19.583Z,77.60
2022-10-16T05:29:54.574Z,77.50
2022-10-16T05:32:29.451Z,77.50
2022-10-16T05:35:07.551Z,77.60
2022-10-16T05:37:45.456Z,77.60
2022-10-16T05:40:20.388Z,77.60
2022-10-16T05:42:58.402Z,77.60
2022-10-16T05:45:33.367Z,77.80
2022-10-16T05:48:08.304Z,78.00
2022-10-16T05:50:43.224Z,78.20
2022-10-16T05:53:18.185Z,78.70
2022-10-16T05:55:54.700Z,78.80
2022-10-16T05:58:33.784Z,78.60
2022-10-16T06:01:19.803Z,78.60
2022-10-16T06:03:54.831Z,78.60
2022-10-16T06:06:30.722Z,78.70
2022-10-16T06:09:06.175Z,78.70
2022-10-16T06:11:41.203Z,78.60
2022-10-16T06:14:16.232Z,78.50
2022-10-16T06:16:51.221Z,78.60
2022-10-16T06:19:26.146Z,78.50
2022-10-16T06:22:01.189Z,78.40
2022-10-16T06:24:36.128Z,78.50
2022-10-16T06:27:11.180Z,78.60
2022-10-16T06:29:46.472Z,78.60
2022-10-16T06:32:22.627Z,78.60
2022-10-16T06:34:57.593Z,78.60
2022-10-16T06:37:32.513Z,78.70
2022-10-16T06:40:08.214Z,78.90
2022-10-16T06:42:43.161Z,78.70
2022-10-16T06:45:18.218Z,78.30
2022-10-16T06:47:53.216Z,78.50
2022-10-16T06:50:28.071Z,78.70
2022-10-16T06:53:03.042Z,78.60
2022-10-16T06:55:38.163Z,78.00
2022-10-16T06:58:13.129Z,77.70
2022-10-16T07:00:48.401Z,77.40
2022-10-16T07:03:23.457Z,77.30
2022-10-16T07:05:58.495Z,77.20
2022-10-16T07:08:40.303Z,77.30
2022-10-16T07:11:19.284Z,77.10
2022-10-16T07:13:56.253Z,76.60
2022-10-16T07:16:33.878Z,76.00
2022-10-16T07:19:09.416Z,74.50
2022-10-16T07:21:45.286Z,73.70
2022-10-16T07:24:20.260Z,73.20
2022-10-16T07:26:56.300Z,72.80
2022-10-16T07:29:31.412Z,71.80
2022-10-16T07:32:06.395Z,71.50
2022-10-16T07:34:41.417Z,71.00
2022-10-16T07:37:16.326Z,71.00
2022-10-16T07:39:51.303Z,70.70
2022-10-16T07:42:26.266Z,70.40
2022-10-16T07:45:01.333Z,70.60
2022-10-16T07:47:36.275Z,70.70
2022-10-16T07:50:11.278Z,70.60
2022-10-16T07:52:46.212Z,70.50
2022-10-16T07:55:21.185Z,70.70
2022-10-16T07:57:56.512Z,70.70
2022-10-16T08:00:32.133Z,70.60
2022-10-16T08:03:07.642Z,70.20
2022-10-16T08:05:42.663Z,69.70
2022-10-16T08:08:19.290Z,69.10
2022-10-16T08:10:55.142Z,68.60
2022-10-16T08:13:30.827Z,67.50
2022-10-16T08:16:09.280Z,65.60
2022-10-16T08:18:44.408Z,64.60
2022-10-16T08:21:24.064Z,63.60
2022-10-16T08:24:00.013Z,62.50
2022-10-16T08:26:34.958Z,61.20
2022-10-16T08:29:09.924Z,60.40
2022-10-16T08:31:44.854Z,60.00
2022-10-16T08:34:20.084Z,59.20
2022-10-16T08:36:55.812Z,58.20
2022-10-16T08:39:30.743Z,57.00
2022-10-16T08:42:31.092Z,55.80
2022-10-16T08:45:25.409Z,54.80
2022-10-16T08:48:26.953Z,54.30
2022-10-16T08:51:04.089Z,53.80
2022-10-16T08:53:50.383Z,52.80
2022-10-16T08:56:26.965Z,51.30
2022-10-16T08:59:03.203Z,51.00
2022-10-16T09:01:46.365Z,50.50
2022-10-16T09:04:56.903Z,49.90
2022-10-16T09:07:57.230Z,49.70
2022-10-16T09:10:44.548Z,48.50
2022-10-16T09:13:38.054Z,48.20
2022-10-16T09:16:38.878Z,48.30
2022-10-16T09:19:29.907Z,48.50
2022-10-16T09:22:16.138Z,48.30
2022-10-16T09:24:51.669Z,48.40
2022-10-16T09:27:28.126Z,48.20
2022-10-16T09:30:19.050Z,48.40
2022-10-16T09:32:55.249Z,48.70
2022-10-16T09:35:45.333Z,48.80
2022-10-16T09:38:39.159Z,48.90
2022-10-16T09:41:26.123Z,49.00
2022-10-16T09:44:03.901Z,49.20
2022-10-16T09:46:42.530Z,49.80
2022-10-16T09:49:28.040Z,50.00
2022-10-16T09:52:16.004Z,50.00
2022-10-16T09:55:04.380Z,49.90
2022-10-16T09:57:53.366Z,49.90
2022-10-16T10:00:30.917Z,50.00
2022-10-16T10:03:11.952Z,49.90
2022-10-16T10:05:49.866Z,49.70
2022-10-16T10:08:25.141Z,49.70
2022-10-16T10:11:00.214Z,49.20
2022-10-16T10:13:37.922Z,48.90
2022-10-16T10:16:12.858Z,48.50
2022-10-16T10:18:47.924Z,48.10
2022-10-16T10:21:22.983Z,47.60
2022-10-16T10:23:58.674Z,47.20
2022-10-16T10:26:37.776Z,47.00
2022-10-16T10:29:27.416Z,46.10
2022-10-16T10:32:17.125Z,45.70
2022-10-16T10:35:22.754Z,45.20
2022-10-16T10:38:29.088Z,44.70
2022-10-16T10:41:31.714Z,44.00
2022-10-16T10:44:48.563Z,43.80
2022-10-16T10:48:00.287Z,43.40
2022-10-16T10:51:08.522Z,42.10
2022-10-16T10:53:58.354Z,40.70
2022-10-16T10:56:40.407Z,40.50
2022-10-16T11:00:05.867Z,40.40
2022-10-16T11:03:27.402Z,40.40
2022-10-16T11:06:27.539Z,40.20
2022-10-16T11:09:09.697Z,39.90
2022-10-16T11:12:14.044Z,39.50
2022-10-16T11:15:17.138Z,39.80
2022-10-16T11:18:09.353Z,39.30
2022-10-16T11:20:54.600Z,38.90
2022-10-16T11:23:54.394Z,38.60
2022-10-16T11:26:35.912Z,38.10
2022-10-16T11:29:30.456Z,36.80
2022-10-16T11:32:25.243Z,36.40
2022-10-16T11:35:14.380Z,35.80
2022-10-16T11:37:51.815Z,35.50
2022-10-16T11:40:34.483Z,35.70
2022-10-16T11:43:27.440Z,36.50
2022-10-16T11:46:13.328Z,36.50
2022-10-16T11:49:21.266Z,36.50
2022-10-16T11:52:17.393Z,38.10
2022-10-16T11:55:25.639Z,37.30
2022-10-16T11:58:15.933Z,37.00
2022-10-16T12:01:10.350Z,39.00
2022-10-16T12:04:16.271Z,39.40
2022-10-16T12:07:33.493Z,35.90
2022-10-16T12:10:26.576Z,38.70
2022-10-16T12:13:03.144Z,33.90
2022-10-16T12:15:58.146Z,35.10
2022-10-16T12:18:33.570Z,33.00
2022-10-16T12:21:09.550Z,35.90
2022-10-16T12:23:57.368Z,35.10
2022-10-16T12:26:40.179Z,33.50
2022-10-16T12:29:29.920Z,35.10
2022-10-16T12:32:46.215Z,34.30
2022-10-16T12:35:27.589Z,34.60
2022-10-16T12:38:22.878Z,35.60
2022-10-16T12:41:09.406Z,35.80
2022-10-16T12:43:48.950Z,35.50
2022-10-16T12:46:29.705Z,36.10
2022-10-16T12:49:13.327Z,35.30
2022-10-16T12:51:48.244Z,35.10
2022-10-16T12:54:32.693Z,35.80
2022-10-16T12:57:38.227Z,35.70
2022-10-16T13:00:34.302Z,34.90
2022-10-16T13:03:36.313Z,36.40
2022-10-16T13:06:54.204Z,34.90
2022-10-16T13:10:25.150Z,33.20
2022-10-16T13:13:08.605Z,35.00
2022-10-16T13:16:10.521Z,35.80
2022-10-16T13:19:03.598Z,34.40
2022-10-16T13:22:04.479Z,33.30
2022-10-16T13:25:02.609Z,33.70
2022-10-16T13:27:57.301Z,33.30
2022-10-16T13:30:41.410Z,32.90
2022-10-16T13:33:24.918Z,32.70
2022-10-16T13:36:00.403Z,32.40
2022-10-16T13:38:37.138Z,32.50
2022-10-16T13:41:19.144Z,33.40
2022-10-16T13:43:57.466Z,33.00
2022-10-16T13:46:35.383Z,33.80
2022-10-16T13:49:17.609Z,34.00
2022-10-16T13:52:00.655Z,33.90
2022-10-16T13:54:35.609Z,34.70
2022-10-16T13:57:26.922Z,34.20
2022-10-16T14:00:02.924Z,34.80
2022-10-16T14:02:41.608Z,34.40
2022-10-16T14:05:16.845Z,33.90
2022-10-16T14:07:53.028Z,33.80
2022-10-16T14:10:33.740Z,34.50
2022-10-16T14:13:17.964Z,35.00
2022-10-16T14:15:55.195Z,34.20
2022-10-16T14:18:33.616Z,34.70
2022-10-16T14:21:15.644Z,34.60
2022-10-16T14:23:50.596Z,36.00
2022-10-16T14:26:28.653Z,36.20
2022-10-16T14:29:16.297Z,36.40
2022-10-16T14:32:06.347Z,36.20
2022-10-16T14:34:41.460Z,36.30
2022-10-16T14:37:28.259Z,36.60
2022-10-16T14:40:04.672Z,36.70
2022-10-16T14:42:44.418Z,36.90
2022-10-16T14:45:23.197Z,36.30
2022-10-16T14:48:19.864Z,35.80
2022-10-16T14:50:55.051Z,35.60
2022-10-16T14:53:29.990Z,36.50
2022-10-16T14:56:10.362Z,37.10
2022-10-16T14:58:45.452Z,36.40
2022-10-16T15:01:21.285Z,36.40
2022-10-16T15:03:56.411Z,36.30
2022-10-16T15:06:31.347Z,36.70
2022-10-16T15:09:06.308Z,36.50
2022-10-16T15:11:42.454Z,36.00
2022-10-16T15:14:17.495Z,36.00
2022-10-16T15:16:52.539Z,36.30
2022-10-16T15:19:27.592Z,36.40
2022-10-16T15:22:02.548Z,36.20
2022-10-16T15:24:37.439Z,37.00
2022-10-16T15:27:12.476Z,36.40
2022-10-16T15:29:47.373Z,36.20
2022-10-16T15:32:22.306Z,36.20
2022-10-16T15:34:57.258Z,36.40
2022-10-16T15:37:32.116Z,36.40
2022-10-16T15:40:07.753Z,36.30
2022-10-16T15:42:42.845Z,36.50
2022-10-16T15:45:20.210Z,36.70
2022-10-16T15:47:55.270Z,36.70
2022-10-16T15:50:33.153Z,37.00
2022-10-16T15:53:08.221Z,37.30
2022-10-16T15:55:43.209Z,37.40
2022-10-16T15:58:18.556Z,38.00
2022-10-16T16:01:02.463Z,37.70
2022-10-16T16:03:42.765Z,37.70
2022-10-16T16:06:17.713Z,37.80
2022-10-16T16:08:52.946Z,38.40
2022-10-16T16:11:27.972Z,38.20
2022-10-16T16:14:03.272Z,38.20
2022-10-16T16:16:39.128Z,38.30
2022-10-16T16:19:14.022Z,38.70
2022-10-16T16:21:50.429Z,39.00
2022-10-16T16:24:25.442Z,39.40
2022-10-16T16:27:00.534Z,39.30
2022-10-16T16:29:35.624Z,39.30
2022-10-16T16:32:10.698Z,39.40
2022-10-16T16:34:45.737Z,39.70
2022-10-16T16:37:20.684Z,40.30
2022-10-16T16:39:56.680Z,40.50
2022-10-16T16:42:31.633Z,40.90
2022-10-16T16:45:08.488Z,41.50
2022-10-16T16:47:43.452Z,41.60
2022-10-16T16:50:18.328Z,42.00
2022-10-16T16:52:53.196Z,42.40
2022-10-16T16:55:28.216Z,42.10
2022-10-16T16:58:04.537Z,42.60
2022-10-16T17:00:56.510Z,42.60
2022-10-16T17:03:35.297Z,42.70
2022-10-16T17:06:12.235Z,42.90
2022-10-16T17:08:47.186Z,43.80
2022-10-16T17:11:26.243Z,43.70
2022-10-16T17:14:02.049Z,44.40
2022-10-16T17:16:38.776Z,44.70
2022-10-16T17:19:18.240Z,45.00
2022-10-16T17:21:55.261Z,45.30
2022-10-16T17:24:30.337Z,46.00
2022-10-16T17:27:05.461Z,46.40
2022-10-16T17:29:40.370Z,46.50
2022-10-16T17:32:15.344Z,46.90
2022-10-16T17:34:50.517Z,47.50
2022-10-16T17:37:25.551Z,48.00
2022-10-16T17:40:00.543Z,48.60
2022-10-16T17:42:35.586Z,48.80
2022-10-16T17:45:10.758Z,49.20
2022-10-16T17:47:45.732Z,49.40
2022-10-16T17:50:20.682Z,50.00
2022-10-16T17:52:55.609Z,50.60
2022-10-16T17:55:30.506Z,51.10
2022-10-16T17:58:05.471Z,51.70
2022-10-16T18:00:40.397Z,51.70
2022-10-16T18:03:15.372Z,51.90
2022-10-16T18:05:50.334Z,52.10
2022-10-16T18:08:28.664Z,52.30
2022-10-16T18:11:05.146Z,52.60
2022-10-16T18:13:40.226Z,52.80
2022-10-16T18:16:16.051Z,52.90
2022-10-16T18:18:51.128Z,53.20
2022-10-16T18:21:27.789Z,53.90
2022-10-16T18:24:02.712Z,54.60
2022-10-16T18:26:38.840Z,54.70
2022-10-16T18:29:14.498Z,55.00
2022-10-16T18:31:49.676Z,55.30
2022-10-16T18:34:26.869Z,55.50
2022-10-16T18:37:01.866Z,56.00
2022-10-16T18:39:36.817Z,56.50
2022-10-16T18:42:12.109Z,56.90
2022-10-16T18:44:49.150Z,57.40
2022-10-16T18:47:29.541Z,57.80
2022-10-16T18:50:09.590Z,58.00
2022-10-16T18:52:49.983Z,58.10
2022-10-16T18:55:28.955Z,58.30
2022-10-16T18:58:05.866Z,58.60
2022-10-16T19:00:40.866Z,58.90
2022-10-16T19:03:15.896Z,59.20
2022-10-16T19:05:50.810Z,59.50
2022-10-16T19:08:25.761Z,59.70
2022-10-16T19:11:19.634Z,60.60
2022-10-16T19:13:56.960Z,60.80
2022-10-16T19:16:35.143Z,60.80
2022-10-16T19:19:16.006Z,60.90
2022-10-16T19:21:56.127Z,60.90
2022-10-16T19:24:31.095Z,61.00
2022-10-16T19:27:06.690Z,61.40
2022-10-16T19:29:41.883Z,61.30
2022-10-16T19:32:16.928Z,61.50
2022-10-16T19:34:51.901Z,61.50
2022-10-16T19:37:27.422Z,61.70
2022-10-16T19:40:02.372Z,61.70
2022-10-16T19:42:43.145Z,61.80
2022-10-16T19:45:18.254Z,61.90
2022-10-16T19:47:53.226Z,62.10
2022-10-16T19:50:28.161Z,62.50
2022-10-16T19:53:03.207Z,62.80
2022-10-16T19:55:38.116Z,63.30
2022-10-16T19:58:13.089Z,63.80
2022-10-16T20:00:48.474Z,64.40
2022-10-16T20:03:23.480Z,64.90
2022-10-16T20:05:58.684Z,65.40
2022-10-16T20:08:35.885Z,66.10
2022-10-16T20:11:14.974Z,66.90
2022-10-16T20:13:50.301Z,67.60
2022-10-16T20:16:26.862Z,68.10
2022-10-16T20:19:03.084Z,68.60
2022-10-16T20:21:39.078Z,69.20
2022-10-16T20:24:14.087Z,69.40
2022-10-16T20:26:49.210Z,69.90
2022-10-16T20:29:24.137Z,70.60
2022-10-16T20:31:59.055Z,71.20
2022-10-16T20:34:34.140Z,71.80
2022-10-16T20:37:09.127Z,72.20
2022-10-16T20:39:44.627Z,72.50
2022-10-16T20:42:19.602Z,73.10
2022-10-16T20:44:54.544Z,73.60
2022-10-16T20:47:29.796Z,75.00
2022-10-16T20:50:05.333Z,76.10
2022-10-16T20:52:40.218Z,75.90
2022-10-16T20:55:17.242Z,76.30
2022-10-16T20:57:53.673Z,76.40
2022-10-16T21:00:28.581Z,76.80
2022-10-16T21:03:03.694Z,77.00
2022-10-16T21:05:42.864Z,77.20
2022-10-16T21:08:17.837Z,77.30
2022-10-16T21:10:52.796Z,77.40
2022-10-16T21:13:29.991Z,77.80
2022-10-16T21:16:06.849Z,78.40
2022-10-16T21:18:44.669Z,78.90
2022-10-16T21:21:24.896Z,79.10
2022-10-16T21:24:00.226Z,79.00
2022-10-16T21:26:35.256Z,79.20
2022-10-16T21:29:11.032Z,79.10
2022-10-16T21:31:46.165Z,79.00
2022-10-16T21:34:21.104Z,79.00
2022-10-16T21:36:56.062Z,79.10
2022-10-16T21:39:30.990Z,79.00
2022-10-16T21:42:05.924Z,79.40
2022-10-16T21:44:40.873Z,79.40
2022-10-16T21:47:15.812Z,79.70
2022-10-16T21:49:50.696Z,79.90
2022-10-16T21:52:25.862Z,80.20
2022-10-16T21:55:01.083Z,80.50
2022-10-16T21:57:36.266Z,80.60
2022-10-16T22:00:11.700Z,80.60
2022-10-16T22:02:46.624Z,80.50
2022-10-16T22:05:21.522Z,80.60
2022-10-16T22:07:56.491Z,80.80
2022-10-16T22:10:32.088Z,80.70
2022-10-16T22:13:07.039Z,80.80
2022-10-16T22:15:51.909Z,80.80
2022-10-16T22:18:27.527Z,80.80
2022-10-16T22:21:03.463Z,81.20
2022-10-16T22:23:38.484Z,81.20
2022-10-16T22:26:13.980Z,81.30
2022-10-16T22:28:49.012Z,81.30
2022-10-16T22:31:24.464Z,81.50
2022-10-16T22:34:03.171Z,81.80
2022-10-16T22:36:38.158Z,81.70
2022-10-16T22:39:13.122Z,82.00
2022-10-16T22:41:48.155Z,82.20
2022-10-16T22:44:23.145Z,82.40
2022-10-16T22:46:59.159Z,82.40
2022-10-16T22:49:34.154Z,82.30
2022-10-16T22:52:09.143Z,82.40
2022-10-16T22:54:44.018Z,82.60
2022-10-16T22:57:19.162Z,82.60
2022-10-16T22:59:54.014Z,82.80
2022-10-16T23:02:29.235Z,82.60
2022-10-16T23:05:07.343Z,82.50
2022-10-16T23:07:44.654Z,82.60
2022-10-16T23:10:19.658Z,82.60
2022-10-16T23:12:54.520Z,82.80
2022-10-16T23:15:29.403Z,82.90
2022-10-16T23:18:04.310Z,82.90
2022-10-16T23:20:41.345Z,82.90
2022-10-16T23:23:16.219Z,82.90
2022-10-16T23:25:51.101Z,83.00
2022-10-16T23:28:25.990Z,83.20
2022-10-16T23:31:00.898Z,83.60
2022-10-16T23:33:37.842Z,83.80
2022-10-16T23:36:19.380Z,83.90
2022-10-16T23:38:54.728Z,83.80
2022-10-16T23:41:29.603Z,84.00
2022-10-16T23:44:04.830Z,84.20
2022-10-16T23:46:39.700Z,84.20
2022-10-16T23:49:14.596Z,84.20
2022-10-16T23:51:49.470Z,84.20
2022-10-16T23:54:24.326Z,84.10
2022-10-16T23:56:59.220Z,84.00
2022-10-16T23:59:34.096Z,83.90
